createdAt,value
2022-08-11T00:01:06.785Z,1.58
2022-08-11T00:07:10.109Z,1.60
2022-08-11T00:13:14.951Z,1.80
2022-08-11T00:20:13.298Z,1.70
2022-08-11T00:25:49.090Z,1.60
2022-08-11T00:31:55.124Z,1.60
2022-08-11T00:37:58.586Z,1.58
2022-08-11T00:44:43.806Z,1.60
2022-08-11T00:52:03.981Z,1.52
2022-08-11T00:58:21.769Z,1.85
2022-08-11T01:04:27.693Z,1.67
2022-08-11T01:10:47.628Z,1.48
2022-08-11T01:17:09.817Z,1.33
2022-08-11T01:23:40.038Z,1.40
2022-08-11T01:30:03.929Z,1.70
2022-08-11T01:36:17.233Z,1.55
2022-08-11T01:43:02.573Z,1.70
2022-08-11T01:50:05.948Z,1.60
2022-08-11T01:55:47.542Z,1.70
2022-08-11T02:02:21.674Z,1.75
2022-08-11T02:15:19.644Z,1.63
2022-08-11T02:21:48.495Z,1.67
2022-08-11T02:28:05.983Z,1.70
2022-08-11T02:34:40.266Z,1.30
2022-08-11T02:41:45.842Z,1.30
2022-08-11T02:48:34.963Z,1.15
2022-08-11T02:54:46.114Z,1.45
2022-08-11T03:00:57.241Z,1.30
2022-08-11T03:07:29.527Z,1.70
2022-08-11T03:13:54.702Z,1.60
2022-08-11T03:20:23.331Z,1.70
2022-08-11T03:26:38.720Z,1.50
2022-08-11T03:33:17.958Z,1.55
2022-08-11T03:39:55.551Z,1.67
2022-08-11T03:46:09.593Z,1.65
2022-08-11T03:52:33.244Z,1.50
2022-08-11T03:59:17.173Z,1.88
2022-08-11T04:05:38.461Z,1.67
2022-08-11T04:12:04.559Z,1.60
2022-08-11T04:18:43.153Z,1.98
2022-08-11T04:24:53.959Z,1.48
2022-08-11T04:31:50.491Z,1.30
2022-08-11T04:38:16.972Z,1.35
2022-08-11T04:44:27.841Z,1.40
2022-08-11T04:51:17.591Z,1.58
2022-08-11T04:58:06.143Z,1.33
2022-08-11T05:05:04.338Z,1.60
2022-08-11T05:11:12.315Z,1.50
2022-08-11T05:17:43.132Z,1.40
2022-08-11T05:24:12.817Z,1.75
2022-08-11T05:30:34.434Z,1.83
2022-08-11T05:36:45.643Z,2.22
2022-08-11T05:43:17.399Z,2.00
2022-08-11T05:49:37.783Z,2.50
2022-08-11T05:56:02.154Z,2.20
2022-08-11T06:02:08.644Z,2.10
2022-08-11T06:08:12.406Z,2.88
2022-08-11T06:14:15.799Z,2.05
2022-08-11T06:20:20.328Z,2.42
2022-08-11T06:26:22.406Z,2.08
2022-08-11T06:32:35.915Z,2.05
2022-08-11T06:38:53.496Z,1.80
2022-08-11T06:45:16.557Z,1.98
2022-08-11T06:51:18.746Z,1.65
2022-08-11T06:57:39.333Z,1.70
2022-08-11T07:03:46.790Z,2.30
2022-08-11T07:10:16.500Z,2.47
2022-08-11T07:16:25.821Z,1.98
2022-08-11T07:22:51.052Z,1.45
2022-08-11T07:28:55.379Z,1.50
2022-08-11T07:35:10.339Z,1.73
2022-08-11T07:41:21.597Z,1.38
2022-08-11T07:47:42.899Z,1.40
2022-08-11T07:53:58.334Z,1.52
2022-08-11T08:00:24.503Z,1.15
2022-08-11T08:06:52.935Z,1.20
2022-08-11T08:13:14.816Z,1.13
2022-08-11T08:19:19.006Z,1.30
2022-08-11T08:25:20.891Z,1.23
2022-08-11T08:31:23.143Z,1.20
2022-08-11T08:37:45.625Z,1.27
2022-08-11T08:43:53.477Z,1.15
2022-08-11T08:50:01.717Z,1.35
2022-08-11T08:56:06.100Z,1.27
2022-08-11T09:02:12.953Z,1.42
2022-08-11T09:08:18.623Z,1.50
2022-08-11T09:14:25.383Z,1.40
2022-08-11T09:20:29.360Z,1.25
2022-08-11T09:27:06.798Z,1.50
2022-08-11T09:33:11.421Z,1.48
2022-08-11T09:39:32.771Z,1.45
2022-08-11T09:45:40.216Z,1.20
2022-08-11T09:51:42.496Z,1.35
2022-08-11T09:58:41.932Z,1.30
2022-08-11T10:04:46.905Z,1.50
2022-08-11T10:10:49.972Z,1.92
2022-08-11T10:16:52.461Z,1.33
2022-08-11T10:23:13.067Z,1.38
2022-08-11T10:29:37.642Z,1.40
2022-08-11T10:35:47.444Z,1.40
2022-08-11T10:42:12.131Z,1.50
2022-08-11T10:48:17.560Z,1.40
2022-08-11T10:54:39.799Z,1.50
2022-08-11T11:00:41.689Z,1.38
2022-08-11T11:07:02.178Z,1.30
2022-08-11T11:13:23.126Z,1.30
2022-08-11T11:19:26.247Z,1.35
2022-08-11T11:26:06.336Z,1.23
2022-08-11T11:32:26.506Z,1.40
2022-08-11T11:38:29.433Z,1.30
2022-08-11T11:44:32.478Z,1.42
2022-08-11T11:50:37.626Z,1.42
2022-08-11T11:56:39.602Z,1.30
2022-08-11T12:02:43.061Z,1.55
2022-08-11T12:08:47.942Z,1.52
2022-08-11T12:14:49.907Z,1.17
2022-08-11T12:20:51.807Z,1.40
2022-08-11T12:27:15.690Z,1.30
2022-08-11T12:33:24.105Z,1.50
2022-08-11T12:40:16.940Z,1.38
2022-08-11T12:46:19.632Z,1.33
2022-08-11T12:52:27.374Z,1.50
2022-08-11T12:58:29.677Z,1.40
2022-08-11T13:11:13.387Z,1.40
2022-08-11T13:17:21.722Z,1.48
2022-08-11T13:24:00.538Z,1.70
2022-08-11T13:30:23.793Z,1.10
2022-08-11T13:36:28.554Z,1.15
2022-08-11T13:42:30.793Z,1.33
2022-08-11T13:54:39.147Z,1.13
2022-08-11T14:00:52.701Z,1.40
2022-08-11T14:07:00.344Z,1.52
2022-08-11T14:13:42.491Z,1.45
2022-08-11T14:19:53.711Z,1.35
2022-08-11T14:26:15.066Z,1.33
2022-08-11T14:32:17.200Z,1.20
2022-08-11T14:38:19.962Z,1.23
2022-08-11T14:44:40.491Z,1.27
2022-08-11T14:50:42.765Z,1.52
2022-08-11T15:03:06.897Z,1.30
2022-08-11T15:09:09.464Z,1.70
2022-08-11T15:15:31.619Z,1.40
2022-08-11T15:21:51.802Z,1.50
2022-08-11T15:28:13.359Z,1.50
2022-08-11T15:34:38.423Z,1.37
2022-08-11T15:41:01.484Z,1.50
2022-08-11T15:47:05.443Z,1.40
2022-08-11T15:53:56.686Z,1.38
2022-08-11T16:00:24.455Z,1.38
2022-08-11T16:06:27.331Z,1.27
2022-08-11T16:12:32.584Z,1.23
2022-08-11T16:18:43.041Z,1.40
2022-08-11T16:26:38.115Z,1.40
2022-08-11T16:31:10.829Z,1.23
2022-08-11T16:37:50.965Z,1.40
2022-08-11T16:44:11.280Z,1.67
2022-08-11T16:50:14.055Z,1.25
2022-08-11T16:56:20.477Z,1.30
2022-08-11T17:02:50.998Z,1.40
2022-08-11T17:09:12.390Z,1.25
2022-08-11T17:15:37.560Z,1.48
2022-08-11T17:22:17.661Z,1.20
2022-08-11T17:28:21.898Z,1.20
2022-08-11T17:34:45.799Z,1.40
2022-08-11T17:41:18.479Z,1.27
2022-08-11T17:47:44.590Z,1.10
2022-08-11T17:54:23.676Z,1.50
2022-08-11T18:00:27.293Z,1.35
2022-08-11T18:06:34.288Z,1.45
2022-08-11T18:12:56.552Z,1.27
2022-08-11T18:19:16.992Z,1.58
2022-08-11T18:25:45.664Z,1.70
2022-08-11T18:32:08.241Z,1.60
2022-08-11T18:38:31.060Z,1.45
2022-08-11T18:44:57.415Z,1.55
2022-08-11T18:51:31.360Z,1.30
2022-08-11T18:57:58.911Z,1.60
2022-08-11T19:04:21.782Z,1.80
2022-08-11T19:10:43.068Z,1.92
2022-08-11T19:17:04.475Z,1.60
2022-08-11T19:23:27.399Z,1.52
2022-08-11T19:30:07.619Z,1.60
2022-08-11T19:36:31.312Z,1.70
2022-08-11T19:42:52.275Z,1.40
2022-08-11T19:49:15.733Z,1.60
2022-08-11T20:02:12.465Z,1.48
2022-08-11T20:08:38.136Z,1.35
2022-08-11T20:15:01.094Z,1.70
2022-08-11T20:21:25.387Z,1.48
2022-08-11T20:27:55.669Z,1.85
2022-08-11T20:34:19.482Z,1.42
2022-08-11T20:40:43.673Z,1.80
2022-08-11T20:47:05.704Z,1.70
2022-08-11T20:53:40.640Z,1.40
2022-08-11T21:00:02.221Z,1.60
2022-08-11T21:06:32.783Z,1.37
2022-08-11T21:12:55.400Z,1.60
2022-08-11T21:19:55.093Z,1.40
2022-08-11T21:26:28.227Z,1.58
2022-08-11T21:32:51.273Z,1.60
2022-08-11T21:39:11.805Z,1.40
2022-08-11T21:45:33.874Z,1.70
2022-08-11T21:51:54.538Z,1.58
2022-08-11T21:58:17.140Z,1.60
2022-08-11T22:04:38.976Z,1.52
2022-08-11T22:10:59.598Z,1.45
2022-08-11T22:17:20.006Z,1.40
2022-08-11T22:23:41.320Z,1.40
2022-08-11T22:30:02.609Z,1.40
2022-08-11T22:36:23.389Z,1.27
2022-08-11T22:42:43.980Z,1.50
2022-08-11T22:49:06.337Z,1.48
2022-08-11T22:55:27.883Z,1.50
2022-08-11T23:01:56.261Z,1.50
2022-08-11T23:08:19.545Z,1.63
2022-08-11T23:14:41.030Z,1.63
2022-08-11T23:21:02.433Z,1.40
2022-08-11T23:27:24.923Z,1.73
2022-08-11T23:33:46.455Z,1.77
2022-08-11T23:40:06.887Z,1.63
2022-08-11T23:46:27.874Z,1.92
2022-08-11T23:52:49.740Z,1.80
2022-08-11T23:59:12.685Z,1.88
